createdAt,value
2019-05-12T00:00:07.893Z,7.10
2019-05-12T00:05:10.956Z,7.10
2019-05-12T00:10:13.885Z,7.00
2019-05-12T00:15:18.794Z,7.10
2019-05-12T00:20:21.466Z,7.10
2019-05-12T00:25:24.118Z,7.10
2019-05-12T00:30:35.357Z,7.00
2019-05-12T00:35:38.330Z,6.90
2019-05-12T00:40:41.030Z,6.70
2019-05-12T00:45:43.728Z,6.70
2019-05-12T00:50:48.406Z,6.60
2019-05-12T00:55:51.098Z,6.50
2019-05-12T01:00:53.791Z,6.40
2019-05-12T01:05:57.811Z,6.40
2019-05-12T01:11:00.677Z,6.30
2019-05-12T01:16:03.566Z,6.30
2019-05-12T01:21:07.795Z,6.30
2019-05-12T01:26:10.818Z,6.30
2019-05-12T01:31:17.884Z,6.30
2019-05-12T01:36:19.828Z,6.30
2019-05-12T01:41:22.526Z,6.30
2019-05-12T01:46:25.255Z,6.20
2019-05-12T01:51:28.521Z,6.30
2019-05-12T01:56:31.215Z,6.30
2019-05-12T02:01:34.612Z,6.30
2019-05-12T02:06:38.627Z,6.20
2019-05-12T02:11:41.656Z,6.10
2019-05-12T02:16:44.348Z,6.10
2019-05-12T02:21:48.772Z,6.00
2019-05-12T02:26:51.513Z,6.00
2019-05-12T02:31:54.224Z,5.90
2019-05-12T02:36:56.956Z,5.90
2019-05-12T02:41:59.717Z,5.90
2019-05-12T02:47:05.127Z,5.80
2019-05-12T02:52:07.058Z,5.90
2019-05-12T02:57:18.472Z,5.90
2019-05-12T03:02:24.656Z,5.90
2019-05-12T03:07:29.683Z,6.00
2019-05-12T03:12:34.412Z,6.00
2019-05-12T03:17:37.300Z,5.90
2019-05-12T03:22:40.067Z,5.90
2019-05-12T03:27:44.497Z,5.90
2019-05-12T03:32:48.084Z,5.90
2019-05-12T03:37:51.018Z,6.00
2019-05-12T03:42:54.905Z,6.10
2019-05-12T03:47:57.720Z,6.20
2019-05-12T03:53:06.095Z,6.40
2019-05-12T03:58:05.208Z,6.60
2019-05-12T04:03:09.183Z,6.90
2019-05-12T04:08:15.386Z,7.20
2019-05-12T04:13:16.517Z,7.30
2019-05-12T04:18:19.280Z,7.40
2019-05-12T04:23:24.720Z,7.40
2019-05-12T04:28:27.451Z,7.40
2019-05-12T04:33:30.298Z,7.40
2019-05-12T04:38:35.549Z,7.50
2019-05-12T04:43:38.535Z,7.50
2019-05-12T04:48:41.501Z,7.60
2019-05-12T04:53:44.984Z,7.70
2019-05-12T04:58:54.587Z,7.80
2019-05-12T05:03:57.250Z,8.10
2019-05-12T05:09:00.410Z,8.10
2019-05-12T05:14:04.409Z,8.00
2019-05-12T05:19:07.604Z,8.00
2019-05-12T05:24:10.185Z,8.10
2019-05-12T05:29:20.132Z,8.20
2019-05-12T05:34:23.622Z,8.10
2019-05-12T05:39:49.542Z,8.00
2019-05-12T05:44:51.030Z,8.00
2019-05-12T05:50:04.728Z,7.70
2019-05-12T05:55:14.527Z,7.90
2019-05-12T06:00:17.595Z,7.90
2019-05-12T06:05:19.900Z,8.20
2019-05-12T06:10:34.563Z,8.50
2019-05-12T06:15:29.859Z,8.70
2019-05-12T06:20:30.623Z,8.60
2019-05-12T06:25:45.615Z,8.60
2019-05-12T06:30:44.392Z,8.30
2019-05-12T06:35:45.271Z,8.10
2019-05-12T06:40:47.545Z,8.10
2019-05-12T06:45:50.396Z,8.20
2019-05-12T06:50:53.531Z,8.40
2019-05-12T06:55:56.748Z,8.50
2019-05-12T07:01:04.431Z,8.60
2019-05-12T07:06:09.287Z,8.80
2019-05-12T07:11:09.144Z,8.80
2019-05-12T07:16:21.808Z,8.40
2019-05-12T07:21:24.132Z,8.30
2019-05-12T07:26:25.423Z,8.40
2019-05-12T07:31:28.297Z,8.60
2019-05-12T07:36:33.391Z,8.50
2019-05-12T07:41:42.455Z,8.70
2019-05-12T07:46:47.753Z,8.70
2019-05-12T07:51:50.066Z,8.80
2019-05-12T07:56:53.966Z,9.00
2019-05-12T08:01:56.795Z,9.30
2019-05-12T08:06:59.828Z,9.60
2019-05-12T08:12:09.555Z,9.50
2019-05-12T08:17:14.042Z,9.40
2019-05-12T08:22:18.790Z,9.10
2019-05-12T08:27:19.731Z,8.90
2019-05-12T08:32:23.778Z,8.80
2019-05-12T08:37:27.479Z,9.00
2019-05-12T08:42:36.547Z,8.90
2019-05-12T08:47:48.414Z,8.80
2019-05-12T08:52:53.758Z,8.60
2019-05-12T08:57:59.705Z,8.70
2019-05-12T09:03:03.580Z,8.80
2019-05-12T09:08:06.761Z,8.50
2019-05-12T09:13:09.606Z,8.70
2019-05-12T09:18:14.346Z,8.10
2019-05-12T09:23:17.056Z,8.10
2019-05-12T09:28:19.960Z,8.30
2019-05-12T09:33:27.597Z,8.90
2019-05-12T09:38:27.544Z,8.80
2019-05-12T09:43:30.314Z,9.20
2019-05-12T09:48:33.523Z,9.00
2019-05-12T09:53:36.628Z,8.80
2019-05-12T09:58:39.368Z,8.60
2019-05-12T10:03:43.809Z,8.80
2019-05-12T10:08:47.037Z,8.70
2019-05-12T10:13:50.266Z,8.70
2019-05-12T10:18:53.114Z,8.70
2019-05-12T10:24:00.323Z,8.10
2019-05-12T10:29:14.204Z,8.20
2019-05-12T10:34:23.805Z,8.20
2019-05-12T10:39:26.216Z,7.60
2019-05-12T10:44:36.346Z,7.70
2019-05-12T10:49:33.866Z,7.70
2019-05-12T10:54:36.926Z,7.50
2019-05-12T10:59:45.181Z,7.70
2019-05-12T11:04:48.692Z,7.10
2019-05-12T11:09:54.307Z,7.40
2019-05-12T11:15:01.352Z,7.20
2019-05-12T11:20:04.477Z,6.80
2019-05-12T11:25:07.418Z,7.10
2019-05-12T11:30:15.615Z,6.80
2019-05-12T11:35:18.749Z,6.60
2019-05-12T11:40:23.693Z,6.90
2019-05-12T11:45:28.622Z,7.60
2019-05-12T11:50:34.184Z,7.40
2019-05-12T11:55:36.932Z,7.90
2019-05-12T12:00:44.097Z,9.00
2019-05-12T12:05:47.007Z,9.40
2019-05-12T12:10:49.735Z,10.30
2019-05-12T12:15:53.955Z,10.60
2019-05-12T12:21:04.222Z,11.20
2019-05-12T12:26:04.899Z,12.10
2019-05-12T12:31:08.666Z,12.10
2019-05-12T12:36:11.571Z,11.90
2019-05-12T12:41:14.520Z,12.50
2019-05-12T12:46:24.389Z,11.90
2019-05-12T12:51:27.439Z,12.40
2019-05-12T12:56:34.067Z,13.00
2019-05-12T13:01:37.430Z,13.30
2019-05-12T13:06:40.389Z,13.10
2019-05-12T13:11:44.497Z,13.40
2019-05-12T13:16:49.533Z,13.40
2019-05-12T13:21:53.185Z,12.60
2019-05-12T13:26:56.348Z,13.60
2019-05-12T13:31:59.356Z,13.70
2019-05-12T13:37:03.431Z,13.60
2019-05-12T13:42:06.694Z,14.40
2019-05-12T13:47:09.623Z,13.70
2019-05-12T13:52:13.348Z,13.60
2019-05-12T13:57:16.605Z,14.60
2019-05-12T14:02:22.146Z,13.90
2019-05-12T14:07:26.772Z,14.90
2019-05-12T14:12:30.441Z,15.30
2019-05-12T14:17:38.794Z,14.80
2019-05-12T14:22:41.747Z,15.50
2019-05-12T14:27:44.753Z,16.00
2019-05-12T14:32:57.133Z,15.70
2019-05-12T14:38:05.033Z,15.40
2019-05-12T14:43:10.275Z,15.50
2019-05-12T14:48:13.764Z,15.60
2019-05-12T14:53:16.732Z,16.90
2019-05-12T14:58:20.677Z,17.00
2019-05-12T15:03:24.154Z,15.90
2019-05-12T15:08:36.256Z,17.00
2019-05-12T15:13:34.202Z,17.70
2019-05-12T15:18:39.626Z,18.00
2019-05-12T15:23:44.001Z,16.70
2019-05-12T15:28:46.415Z,17.40
2019-05-12T15:33:49.460Z,16.70
2019-05-12T15:38:55.763Z,16.60
2019-05-12T15:43:57.000Z,17.40
2019-05-12T15:49:03.445Z,16.80
2019-05-12T15:54:11.293Z,15.30
2019-05-12T15:59:10.885Z,15.60
2019-05-12T16:04:15.131Z,16.60
2019-05-12T16:09:18.143Z,16.00
2019-05-12T16:14:23.254Z,16.50
2019-05-12T16:19:26.572Z,15.10
2019-05-12T16:24:29.453Z,15.40
2019-05-12T16:29:33.996Z,16.20
2019-05-12T16:34:44.939Z,16.80
2019-05-12T16:39:46.633Z,16.50
2019-05-12T16:44:46.336Z,15.50
2019-05-12T16:49:50.256Z,13.90
2019-05-12T16:54:54.050Z,14.60
2019-05-12T17:00:03.338Z,14.40
2019-05-12T17:05:07.903Z,13.30
2019-05-12T17:10:12.000Z,13.80
2019-05-12T17:15:15.039Z,15.10
2019-05-12T17:20:18.304Z,14.60
2019-05-12T17:25:21.235Z,14.60
2019-05-12T17:30:24.695Z,15.10
2019-05-12T17:35:53.419Z,15.60
2019-05-12T17:41:00.803Z,15.80
2019-05-12T17:46:18.169Z,14.80
2019-05-12T17:51:20.397Z,14.60
2019-05-12T17:56:33.995Z,14.70
2019-05-12T18:01:39.914Z,14.30
2019-05-12T18:12:20.050Z,13.70
2019-05-12T18:17:23.657Z,13.00
2019-05-12T18:22:44.911Z,12.90
2019-05-12T18:27:53.982Z,13.20
2019-05-12T18:33:42.506Z,11.90
2019-05-12T18:39:15.432Z,11.10
2019-05-12T18:44:43.870Z,10.20
2019-05-12T18:50:10.912Z,9.80
2019-05-12T18:55:23.375Z,9.50
2019-05-12T19:00:43.623Z,9.30
2019-05-12T19:05:48.648Z,9.10
2019-05-12T19:11:19.084Z,8.90
2019-05-12T19:22:48.243Z,8.70
2019-05-12T19:28:05.877Z,8.50
2019-05-12T19:33:05.542Z,8.30
2019-05-12T19:38:04.738Z,8.10
2019-05-12T19:43:08.434Z,8.00
2019-05-12T19:48:23.237Z,7.90
2019-05-12T19:53:17.264Z,7.90
2019-05-12T19:58:23.608Z,7.80
2019-05-12T20:03:25.791Z,7.70
2019-05-12T20:08:28.491Z,7.60
2019-05-12T20:13:36.037Z,7.50
2019-05-12T20:18:42.723Z,7.40
2019-05-12T20:23:43.760Z,7.30
2019-05-12T20:28:50.596Z,7.20
2019-05-12T20:33:57.319Z,7.10
2019-05-12T20:38:55.648Z,7.00
2019-05-12T20:43:58.504Z,7.00
2019-05-12T20:49:06.019Z,6.90
2019-05-12T20:54:14.046Z,6.80
2019-05-12T20:59:13.727Z,6.80
2019-05-12T21:04:15.496Z,6.70
2019-05-12T21:09:18.238Z,6.70
2019-05-12T21:14:20.946Z,6.70
2019-05-12T21:19:24.239Z,6.70
2019-05-12T21:24:29.464Z,6.70
2019-05-12T21:29:33.335Z,6.70
2019-05-12T21:34:36.099Z,6.70
2019-05-12T21:39:40.574Z,6.70
2019-05-12T21:44:46.988Z,6.70
2019-05-12T21:49:51.519Z,6.60
2019-05-12T21:54:55.352Z,6.70
2019-05-12T21:59:57.060Z,6.80
2019-05-12T22:04:59.690Z,6.80
2019-05-12T22:10:04.625Z,6.80
2019-05-12T22:15:11.361Z,6.70
2019-05-12T22:20:15.548Z,6.70
2019-05-12T22:25:17.552Z,6.70
2019-05-12T22:30:20.340Z,6.70
2019-05-12T22:35:24.441Z,6.60
2019-05-12T22:40:28.325Z,6.50
2019-05-12T22:45:36.085Z,6.60
2019-05-12T22:50:36.458Z,6.50
2019-05-12T22:55:39.938Z,6.40
2019-05-12T23:00:44.417Z,6.40
2019-05-12T23:05:50.902Z,6.30
2019-05-12T23:10:53.523Z,6.30
2019-05-12T23:15:55.985Z,6.20
2019-05-12T23:21:04.029Z,6.30
2019-05-12T23:26:02.956Z,6.30
2019-05-12T23:31:05.591Z,6.40
2019-05-12T23:36:09.477Z,6.30
2019-05-12T23:41:13.580Z,6.20
2019-05-12T23:46:16.311Z,6.10
2019-05-12T23:51:18.945Z,6.10
2019-05-12T23:56:22.635Z,6.00
